createdAt,value
2023-03-23T15:58:59.757Z,1.60
2023-03-23T16:01:38.042Z,1.80
2023-03-23T16:04:21.148Z,1.58
2023-03-23T16:06:50.679Z,1.30
2023-03-23T16:09:34.450Z,1.60
2023-03-23T16:12:20.033Z,1.00
2023-03-23T16:14:47.337Z,1.30
2023-03-23T16:17:20.651Z,1.45
2023-03-23T16:19:48.079Z,1.52
2023-03-23T16:22:17.147Z,1.70
2023-03-23T16:24:46.421Z,1.75
2023-03-23T16:27:14.517Z,1.30
2023-03-23T16:30:02.204Z,1.75
2023-03-23T16:35:05.816Z,1.75
2023-03-23T16:37:36.049Z,1.33
2023-03-23T16:40:08.043Z,2.20
2023-03-23T16:42:35.479Z,1.77
2023-03-23T16:45:04.255Z,3.10
2023-03-23T16:47:31.590Z,1.90
2023-03-23T16:50:15.405Z,1.95
2023-03-23T16:52:51.318Z,2.70
2023-03-23T16:55:18.549Z,2.17
2023-03-23T17:00:27.155Z,3.47
2023-03-23T17:02:59.420Z,2.60
2023-03-23T17:05:29.776Z,3.85
2023-03-23T17:07:57.563Z,3.25
2023-03-23T17:10:28.270Z,4.20
2023-03-23T17:12:57.142Z,3.90
2023-03-23T17:15:30.994Z,4.82
2023-03-23T17:17:58.424Z,4.03
2023-03-23T17:22:53.149Z,4.45
2023-03-23T17:25:20.514Z,3.53
2023-03-23T17:27:47.742Z,4.80
2023-03-23T17:30:14.913Z,5.57
2023-03-23T17:32:42.240Z,5.28
2023-03-23T17:37:38.191Z,4.85
2023-03-23T17:40:13.253Z,5.57
2023-03-23T17:42:41.935Z,3.60
2023-03-23T17:45:10.513Z,5.63
2023-03-23T17:47:38.554Z,6.00
2023-03-23T17:50:12.389Z,4.38
2023-03-23T17:52:41.841Z,5.72
2023-03-23T17:55:09.559Z,5.63
2023-03-23T17:57:40.135Z,5.78
2023-03-23T18:00:09.263Z,5.35
2023-03-23T18:02:37.802Z,5.53
2023-03-23T18:05:06.669Z,5.60
2023-03-23T18:07:33.836Z,5.30
2023-03-23T18:10:01.466Z,4.97
2023-03-23T18:12:28.972Z,4.93
2023-03-23T18:14:58.475Z,6.03
2023-03-23T18:17:36.126Z,5.03
2023-03-23T18:20:07.343Z,4.90
2023-03-23T18:22:35.020Z,4.90
2023-03-23T18:25:03.012Z,3.95
2023-03-23T18:27:30.198Z,3.30
2023-03-23T18:29:57.684Z,3.88
2023-03-23T18:32:24.915Z,3.42
2023-03-23T18:34:52.250Z,4.30
2023-03-23T18:37:20.938Z,4.13
2023-03-23T18:39:48.180Z,3.72
2023-03-23T18:42:15.626Z,4.35
2023-03-23T18:44:42.924Z,4.25
2023-03-23T18:47:10.034Z,3.60
2023-03-23T18:49:37.234Z,3.38
2023-03-23T18:52:05.085Z,2.67
2023-03-23T18:54:38.471Z,3.25
2023-03-23T18:57:05.839Z,2.95
2023-03-23T19:02:16.271Z,3.00
2023-03-23T19:04:43.665Z,2.40
2023-03-23T19:07:14.506Z,3.20
2023-03-23T19:09:42.088Z,2.95
2023-03-23T19:12:12.092Z,2.60
2023-03-23T19:14:41.004Z,2.10
2023-03-23T19:17:09.183Z,2.25
2023-03-23T19:19:37.395Z,2.10
2023-03-23T19:22:05.867Z,2.17
2023-03-23T19:24:33.172Z,2.35
2023-03-23T19:29:29.491Z,2.53
2023-03-23T19:31:58.286Z,3.03
2023-03-23T19:34:35.385Z,3.90
2023-03-23T19:37:06.243Z,4.38
2023-03-23T19:39:41.581Z,3.97
2023-03-23T19:42:10.035Z,4.47
2023-03-23T19:44:37.694Z,2.95
2023-03-23T19:47:04.934Z,3.72
2023-03-23T19:49:32.943Z,3.28
2023-03-23T19:52:08.029Z,4.95
2023-03-23T19:54:39.080Z,3.10
2023-03-23T19:57:07.869Z,2.33
2023-03-23T19:59:35.528Z,2.22
2023-03-23T20:02:02.929Z,2.70
2023-03-23T20:04:31.350Z,2.33
2023-03-23T20:06:59.264Z,2.33
2023-03-23T20:09:26.643Z,2.55
2023-03-23T20:14:21.437Z,2.97
2023-03-23T20:16:48.963Z,5.20
2023-03-23T20:19:16.513Z,3.33
2023-03-23T20:21:43.811Z,2.88
2023-03-23T20:24:13.391Z,6.70
2023-03-23T20:26:43.827Z,4.22
2023-03-23T20:29:12.880Z,2.90
2023-03-23T20:31:42.112Z,1.98
2023-03-23T20:34:28.813Z,3.17
2023-03-23T20:36:58.269Z,8.07
2023-03-23T20:39:30.950Z,3.75
2023-03-23T20:42:06.077Z,2.30
2023-03-23T20:44:35.703Z,2.33
2023-03-23T20:47:03.992Z,3.40
2023-03-23T20:49:31.465Z,4.63
2023-03-23T20:51:59.992Z,3.38
2023-03-23T20:54:28.044Z,4.40
2023-03-23T20:56:56.322Z,4.38
2023-03-23T20:59:23.676Z,2.72
2023-03-23T21:01:51.377Z,3.22
2023-03-23T21:04:23.096Z,3.60
2023-03-23T21:06:52.460Z,3.80
2023-03-23T21:09:20.894Z,4.40
2023-03-23T21:11:49.489Z,3.95
2023-03-23T21:14:17.238Z,4.78
2023-03-23T21:16:45.544Z,3.40
2023-03-23T21:19:14.176Z,3.78
2023-03-23T21:21:55.856Z,5.15
2023-03-23T21:24:30.086Z,4.65
2023-03-23T21:27:01.187Z,5.55
2023-03-23T21:29:28.888Z,4.80
2023-03-23T21:34:28.081Z,5.15
2023-03-23T21:36:55.825Z,5.13
2023-03-23T21:39:23.922Z,10.80
2023-03-23T21:41:51.473Z,8.68
2023-03-23T21:44:18.866Z,8.55
2023-03-23T21:49:16.334Z,3.42
2023-03-23T21:51:44.022Z,4.05
2023-03-23T21:54:12.672Z,3.25
2023-03-23T21:56:40.170Z,1.98
2023-03-23T21:59:07.880Z,4.68
2023-03-23T22:01:40.629Z,4.93
2023-03-23T22:04:08.742Z,7.22
2023-03-23T22:06:40.927Z,7.50
2023-03-23T22:09:09.866Z,7.25
2023-03-23T22:11:39.187Z,6.10
2023-03-23T22:14:07.541Z,13.25
2023-03-23T22:16:34.956Z,7.80
2023-03-23T22:21:32.726Z,5.03
2023-03-23T22:24:01.403Z,5.22
2023-03-23T22:26:31.317Z,5.10
2023-03-23T22:29:00.616Z,6.25
2023-03-23T22:31:32.795Z,7.22
2023-03-23T22:34:01.359Z,4.78
2023-03-23T22:36:30.717Z,3.90
2023-03-23T22:38:58.028Z,4.13
2023-03-23T22:41:38.154Z,4.32
2023-03-23T22:44:11.749Z,3.58
2023-03-23T22:46:40.405Z,3.67
2023-03-23T22:49:07.978Z,4.50
2023-03-23T22:51:37.041Z,4.47
2023-03-23T22:54:06.675Z,5.30
2023-03-23T22:56:38.106Z,7.25
2023-03-23T22:59:06.886Z,7.15
2023-03-23T23:01:37.591Z,11.90
2023-03-23T23:04:21.049Z,7.88
2023-03-23T23:07:06.468Z,5.97
2023-03-23T23:09:49.002Z,8.07
2023-03-23T23:12:31.221Z,3.90
2023-03-23T23:14:59.965Z,3.08
2023-03-23T23:17:27.522Z,2.95
2023-03-23T23:22:22.242Z,1.75
2023-03-23T23:24:50.084Z,2.50
2023-03-23T23:27:18.242Z,2.90
2023-03-23T23:29:45.448Z,3.28
2023-03-23T23:32:13.171Z,3.95
2023-03-23T23:34:41.659Z,3.25
2023-03-23T23:37:09.196Z,3.67
2023-03-23T23:39:38.526Z,3.72
2023-03-23T23:42:06.294Z,4.38
2023-03-23T23:44:33.703Z,4.97
2023-03-23T23:47:02.101Z,3.67
2023-03-23T23:49:34.426Z,3.80
2023-03-23T23:52:01.716Z,3.50
2023-03-23T23:54:30.496Z,4.55
2023-03-23T23:57:01.554Z,3.35
2023-03-23T23:59:39.748Z,3.40
